SondeTracker

Meteorological Radiosondes Database

Operations

Sounding was ended - last measurement: 2022-12-07 12:57:51z

MAP
About Radiosonde

Number: T4711066

Launch Site: Resistencia (AR)

Type: RS41-SG

AUX: NO

Frequency: 402.000 MHz

Max Speed: 76 km/h at 14700 m

Average Speed: 31.60 km/h

Max Altitude: 23918 m

Average Ascent Speed: 5.86 m/s

Average Descent Speed: 23.46 m/s

Status: UNKNOWN

Status Changes
Launch Site Type AUX Frequency Status Finder Landing Point Description Changes made by
APRS Statistics

Received Frames: 104

First Frame [UTC]: 2022-12-07 11:34:41z

Last Frame [UTC]: 2022-12-07 12:57:51z

Receivers: LU3GHF

Flight Time: 01:23:10 h

Distance From First Measurement: 16.68 km

Nearest City: Corrientes (AR) [7.46 km]

Nearest Hunter: [0.00 km]

Ground Altitude: 52 m

Distance from QTH: 0.00 km

APRS Data
Receiver Number Date/Time [UTC] φ λ Course [°] Speed [km/h] Altitude [m] Description
LU3GHFT47110662022-12-07 12:57:51-27.4447-58.878528011105Clb=-14.2m/s t=32.7C h=58.5% p=-1.0hPa 402.000 MHz Type=RS41-SG ser=T4711066 Radiosonde
LU3GHFT47110662022-12-07 12:57:49-27.4446-58.878121317289Clb=-14.5m/s t=31.5C h=53.8% p=-1.0hPa 402.000 MHz Type=RS41-SG ser=T4711066 Radiosonde
LU3GHFT47110662022-12-07 12:57:47-27.4427-58.878117224792Clb=-15.6m/s t=26.7C h=66.9% p=-1.0hPa 402.000 MHz Type=RS41-SG ser=T4711066 Radiosonde
LU3GHFT47110662022-12-07 12:57:45-27.4407-58.8782180241257Clb=-15.4m/s t=22.8C h=74.2% p=-1.0hPa 402.000 MHz Type=RS41-SG ser=T4711066 Radiosonde
LU3GHFT47110662022-12-07 12:57:41-27.4392-58.878121271679Clb=-14.5m/s t=20.8C h=46.7% p=-1.0hPa 402.000 MHz Type=RS41-SG ser=T4711066 Radiosonde
LU3GHFT47110662022-12-07 12:56:52-27.4389-58.877526672119Clb=-14.5m/s t=16.7C h=54.9% p=-1.0hPa 402.000 MHz Type=RS41-SG ser=T4711066 Radiosonde
LU3GHFT47110662022-12-07 12:55:57-27.4396-58.8768344152580Clb=-14.6m/s t=12.8C h=64.1% p=-1.0hPa 402.000 MHz Type=RS41-SG ser=T4711066 Radiosonde
LU3GHFT47110662022-12-07 12:55:04-27.4407-58.87654123027Clb=-15.0m/s t=12.2C h=8.4% p=-1.0hPa 402.000 MHz Type=RS41-SG ser=T4711066 Radiosonde
LU3GHFT47110662022-12-07 12:54:14-27.4414-58.876612153471Clb=-15.4m/s t=10.3C h=4.8% p=-1.0hPa 402.000 MHz Type=RS41-SG ser=T4711066 Radiosonde
LU3GHFT47110662022-12-07 12:53:21-27.4423-58.876833463955Clb=-15.4m/s t=7.4C h=3.4% p=-1.0hPa 402.000 MHz Type=RS41-SG ser=T4711066 Radiosonde
LU3GHFT47110662022-12-07 12:52:20-27.4424-58.876524244433Clb=-15.9m/s t=6.1C h=1.6% p=-1.0hPa 402.000 MHz Type=RS41-SG ser=T4711066 Radiosonde
LU3GHFT47110662022-12-07 12:51:17-27.4423-58.87639924925Clb=-16.1m/s t=2.4C h=8.4% p=-1.0hPa 402.000 MHz Type=RS41-SG ser=T4711066 Radiosonde
LU3GHFT47110662022-12-07 12:50:25-27.4425-58.87643945411Clb=-15.9m/s t=-1.7C h=22.2% p=-1.0hPa 402.000 MHz Type=RS41-SG ser=T4711066 Radiosonde
LU3GHFT47110662022-12-07 12:49:28-27.4427-58.877664195904Clb=-16.2m/s t=-4.2C h=5.0% p=-1.0hPa 402.000 MHz Type=RS41-SG ser=T4711066 Radiosonde
LU3GHFT47110662022-12-07 12:48:28-27.4436-58.878348136418Clb=-16.2m/s t=-7.4C h=2.5% p=-1.0hPa 402.000 MHz Type=RS41-SG ser=T4711066 Radiosonde
LU3GHFT47110662022-12-07 12:47:27-27.4448-58.879943376935Clb=-16.6m/s t=-10.2C h=9.2% p=-1.0hPa 402.000 MHz Type=RS41-SG ser=T4711066 Radiosonde
LU3GHFT47110662022-12-07 12:46:25-27.4465-58.882170337428Clb=-17.2m/s t=-13.4C h=28.2% p=-1.0hPa 402.000 MHz Type=RS41-SG ser=T4711066 Radiosonde
LU3GHFT47110662022-12-07 12:45:27-27.4472-58.885581437953Clb=-17.3m/s t=-17.9C h=24.4% p=-1.0hPa 402.000 MHz Type=RS41-SG ser=T4711066 Radiosonde
LU3GHFT47110662022-12-07 12:44:24-27.4476-58.892182488806Clb=-17.7m/s t=-24.0C h=58.5% p=-1.0hPa 402.000 MHz Type=RS41-SG ser=T4711066 Radiosonde
LU3GHFT47110662022-12-07 12:43:43-27.4478-58.893883509009Clb=-18.0m/s t=-25.8C h=58.3% p=-1.0hPa 402.000 MHz Type=RS41-SG ser=T4711066 Radiosonde
LU3GHFT47110662022-12-07 12:43:11-27.4479-58.89892489559Clb=-18.4m/s t=-30.0C h=44.9% p=-1.0hPa 402.000 MHz Type=RS41-SG ser=T4711066 Radiosonde
LU3GHFT47110662022-12-07 12:42:34-27.448-58.9033925410188Clb=-18.3m/s t=-34.9C h=34.0% p=-1.0hPa 402.000 MHz Type=RS41-SG ser=T4711066 Radiosonde
LU3GHFT47110662022-12-07 12:41:55-27.448-58.9073905210680Clb=-19.3m/s t=-39.2C h=31.3% p=-1.0hPa 402.000 MHz Type=RS41-SG ser=T4711066 Radiosonde
LU3GHFT47110662022-12-07 12:41:24-27.4478-58.9123875611258Clb=-20.1m/s t=-43.6C h=22.8% p=-1.0hPa 402.000 MHz Type=RS41-SG ser=T4711066 Radiosonde
LU3GHFT47110662022-12-07 12:40:56-27.448-58.92492754123918Clb=6.2m/s t=-62.3C h=1.5% p=-1.0hPa 402.000 MHz Type=RS41-SG ser=T4711066 Radiosonde
LU3GHFT47110662022-12-07 12:39:47-27.4487-58.92162773723706Clb=5.0m/s t=-62.1C h=1.5% p=-1.0hPa 402.000 MHz Type=RS41-SG ser=T4711066 Radiosonde
LU3GHFT47110662022-12-07 12:38:28-27.4494-58.91893131523441Clb=5.3m/s t=-62.5C h=1.6% p=-1.0hPa 402.000 MHz Type=RS41-SG ser=T4711066 Radiosonde
LU3GHFT47110662022-12-07 12:37:18-27.4495-58.91812923259Clb=8.5m/s t=-61.8C h=1.5% p=-1.0hPa 402.000 MHz Type=RS41-SG ser=T4711066 Radiosonde
LU3GHFT47110662022-12-07 12:36:03-27.4485-58.91752701323036Clb=5.4m/s t=-61.8C h=1.5% p=-1.0hPa 402.000 MHz Type=RS41-SG ser=T4711066 Radiosonde
LU3GHFT47110662022-12-07 12:34:49-27.4478-58.91572612222812Clb=9.2m/s t=-60.5C h=1.5% p=-1.0hPa 402.000 MHz Type=RS41-SG ser=T4711066 Radiosonde
LU3GHFT47110662022-12-07 12:33:34-27.448-58.91333123722587Clb=7.3m/s t=-61.3C h=1.6% p=-1.0hPa 402.000 MHz Type=RS41-SG ser=T4711066 Radiosonde
LU3GHFT47110662022-12-07 12:32:24-27.4477-58.91122323122360Clb=10.0m/s t=-62.0C h=1.7% p=-1.0hPa 402.000 MHz Type=RS41-SG ser=T4711066 Radiosonde
LU3GHFT47110662022-12-07 12:31:07-27.447-58.90782653722128Clb=8.0m/s t=-63.6C h=1.9% p=-1.0hPa 402.000 MHz Type=RS41-SG ser=T4711066 Radiosonde
LU3GHFT47110662022-12-07 12:29:52-27.4476-58.90522962221915Clb=6.1m/s t=-64.0C h=2.1% p=-1.0hPa 402.000 MHz Type=RS41-SG ser=T4711066 Radiosonde
LU3GHFT47110662022-12-07 12:28:37-27.4483-58.90322942421694Clb=7.0m/s t=-65.1C h=2.3% p=-1.0hPa 402.000 MHz Type=RS41-SG ser=T4711066 Radiosonde
LU3GHFT47110662022-12-07 12:27:17-27.4492-58.90113041721476Clb=5.5m/s t=-65.3C h=2.6% p=-1.0hPa 402.000 MHz Type=RS41-SG ser=T4711066 Radiosonde
LU3GHFT47110662022-12-07 12:25:59-27.4506-58.900122621267Clb=8.0m/s t=-65.5C h=2.7% p=-1.0hPa 402.000 MHz Type=RS41-SG ser=T4711066 Radiosonde
LU3GHFT47110662022-12-07 12:24:42-27.4513-58.899855921053Clb=6.6m/s t=-66.6C h=3.0% p=-1.0hPa 402.000 MHz Type=RS41-SG ser=T4711066 Radiosonde
LU3GHFT47110662022-12-07 12:23:53-27.4512-58.8998236720834Clb=5.2m/s t=-67.3C h=3.3% p=-1.0hPa 402.000 MHz Type=RS41-SG ser=T4711066 Radiosonde
LU3GHFT47110662022-12-07 12:23:23-27.451-58.8989295920612Clb=5.6m/s t=-68.0C h=4.1% p=-1.0hPa 402.000 MHz Type=RS41-SG ser=T4711066 Radiosonde
LU3GHFT47110662022-12-07 12:22:51-27.451-58.898515720405Clb=7.8m/s t=-68.3C h=4.4% p=-1.0hPa 402.000 MHz Type=RS41-SG ser=T4711066 Radiosonde
LU3GHFT47110662022-12-07 12:22:38-27.4515-58.8981153720195Clb=6.1m/s t=-68.8C h=4.9% p=-1.0hPa 402.000 MHz Type=RS41-SG ser=T4711066 Radiosonde
LU3GHFT47110662022-12-07 12:21:43-27.4311-58.8554280716140Clb=6.6m/s t=-72.6C h=15.8% p=-1.0hPa 402.000 MHz Type=RS41-SG ser=T4711066 Radiosonde
LU3GHFT47110662022-12-07 12:20:38-27.4309-58.855245415922Clb=5.3m/s t=-72.2C h=17.0% p=-1.0hPa 402.000 MHz Type=RS41-SG ser=T4711066 Radiosonde
LU3GHFT47110662022-12-07 12:19:29-27.431-58.8562791715716Clb=6.8m/s t=-71.0C h=17.4% p=-1.0hPa 402.000 MHz Type=RS41-SG ser=T4711066 Radiosonde
LU3GHFT47110662022-12-07 12:18:18-27.4314-58.8584854815505Clb=5.1m/s t=-71.4C h=19.9% p=-1.0hPa 402.000 MHz Type=RS41-SG ser=T4711066 Radiosonde
LU3GHFT47110662022-12-07 12:17:17-27.4311-58.86331006115298Clb=8.9m/s t=-70.7C h=21.3% p=-1.0hPa 402.000 MHz Type=RS41-SG ser=T4711066 Radiosonde
LU3GHFT47110662022-12-07 12:16:19-27.4297-58.86831085415088Clb=8.2m/s t=-69.3C h=22.4% p=-1.0hPa 402.000 MHz Type=RS41-SG ser=T4711066 Radiosonde
LU3GHFT47110662022-12-07 12:15:23-27.4281-58.87291045914881Clb=5.0m/s t=-68.5C h=22.3% p=-1.0hPa 402.000 MHz Type=RS41-SG ser=T4711066 Radiosonde
LU3GHFT47110662022-12-07 12:14:24-27.4273-58.8781907614700Clb=7.1m/s t=-69.1C h=26.0% p=-1.0hPa 402.000 MHz Type=RS41-SG ser=T4711066 Radiosonde
LU3GHFT47110662022-12-07 12:13:23-27.4277-58.884767414529Clb=6.3m/s t=-68.5C h=28.2% p=-1.0hPa 402.000 MHz Type=RS41-SG ser=T4711066 Radiosonde
LU3GHFT47110662022-12-07 12:12:11-27.4285-58.8908867214332Clb=5.6m/s t=-67.3C h=27.9% p=-1.0hPa 402.000 MHz Type=RS41-SG ser=T4711066 Radiosonde
LU3GHFT47110662022-12-07 12:11:03-27.4296-58.8972707014117Clb=6.0m/s t=-65.9C h=29.8% p=-1.0hPa 402.000 MHz Type=RS41-SG ser=T4711066 Radiosonde
LU3GHFT47110662022-12-07 12:09:49-27.4307-58.9035816313899Clb=5.3m/s t=-64.2C h=29.3% p=-1.0hPa 402.000 MHz Type=RS41-SG ser=T4711066 Radiosonde
LU3GHFT47110662022-12-07 12:08:39-27.4312-58.9092944813680Clb=13.1m/s t=-62.3C h=20.3% p=-1.0hPa 402.000 MHz Type=RS41-SG ser=T4711066 Radiosonde
LU3GHFT47110662022-12-07 12:07:31-27.4313-58.9144875613441Clb=8.6m/s t=-60.3C h=14.3% p=-1.0hPa 402.000 MHz Type=RS41-SG ser=T4711066 Radiosonde
LU3GHFT47110662022-12-07 12:06:27-27.431-58.9192946913216Clb=9.7m/s t=-58.1C h=11.0% p=-1.0hPa 402.000 MHz Type=RS41-SG ser=T4711066 Radiosonde
LU3GHFT47110662022-12-07 12:05:20-27.4308-58.9251945912965Clb=4.5m/s t=-55.9C h=9.9% p=-1.0hPa 402.000 MHz Type=RS41-SG ser=T4711066 Radiosonde
LU3GHFT47110662022-12-07 12:04:15-27.4306-58.9299976112754Clb=8.8m/s t=-54.3C h=13.5% p=-1.0hPa 402.000 MHz Type=RS41-SG ser=T4711066 Radiosonde
LU3GHFT47110662022-12-07 12:03:44-27.4307-58.9351005912489Clb=9.8m/s t=-52.2C h=10.7% p=-1.0hPa 402.000 MHz Type=RS41-SG ser=T4711066 Radiosonde
LU3GHFT47110662022-12-07 12:03:11-27.4307-58.9397905612258Clb=6.0m/s t=-50.1C h=8.6% p=-1.0hPa 402.000 MHz Type=RS41-SG ser=T4711066 Radiosonde
LU3GHFT47110662022-12-07 12:02:51-27.4283-58.9662976311162Clb=8.0m/s t=-43.0C h=28.6% p=-1.0hPa 402.000 MHz Type=RS41-SG ser=T4711066 Radiosonde
LU3GHFT47110662022-12-07 12:02:46-27.4281-58.9717997010919Clb=8.7m/s t=-41.3C h=31.5% p=-1.0hPa 402.000 MHz Type=RS41-SG ser=T4711066 Radiosonde
LU3GHFT47110662022-12-07 12:02:03-27.4279-58.9761865710737Clb=5.6m/s t=-39.7C h=33.8% p=-1.0hPa 402.000 MHz Type=RS41-SG ser=T4711066 Radiosonde
LU3GHFT47110662022-12-07 12:01:58-27.4278-58.9811005610519Clb=8.7m/s t=-38.0C h=39.2% p=-1.0hPa 402.000 MHz Type=RS41-SG ser=T4711066 Radiosonde
LU3GHFT47110662022-12-07 12:01:53-27.4279-58.9861915910307Clb=9.0m/s t=-36.0C h=42.1% p=-1.0hPa 402.000 MHz Type=RS41-SG ser=T4711066 Radiosonde
LU3GHFT47110662022-12-07 12:01:49-27.4278-58.991915210087Clb=6.8m/s t=-34.0C h=35.3% p=-1.0hPa 402.000 MHz Type=RS41-SG ser=T4711066 Radiosonde
LU3GHFT47110662022-12-07 12:01:47-27.4277-58.99595309871Clb=8.4m/s t=-32.1C h=33.3% p=-1.0hPa 402.000 MHz Type=RS41-SG ser=T4711066 Radiosonde
LU3GHFT47110662022-12-07 12:01:41-27.4273-58.998994449654Clb=6.2m/s t=-30.1C h=31.8% p=-1.0hPa 402.000 MHz Type=RS41-SG ser=T4711066 Radiosonde
LU3GHFT47110662022-12-07 12:00:54-27.4272-59.0026108549439Clb=7.8m/s t=-28.9C h=44.4% p=-1.0hPa 402.000 MHz Type=RS41-SG ser=T4711066 Radiosonde
LU3GHFT47110662022-12-07 11:59:51-27.4271-59.006693469218Clb=9.5m/s t=-27.1C h=48.1% p=-1.0hPa 402.000 MHz Type=RS41-SG ser=T4711066 Radiosonde
LU3GHFT47110662022-12-07 11:58:45-27.4269-59.01184579012Clb=6.1m/s t=-25.5C h=51.8% p=-1.0hPa 402.000 MHz Type=RS41-SG ser=T4711066 Radiosonde
LU3GHFT47110662022-12-07 11:57:36-27.4267-59.014896528807Clb=6.9m/s t=-23.9C h=54.2% p=-1.0hPa 402.000 MHz Type=RS41-SG ser=T4711066 Radiosonde
LU3GHFT47110662022-12-07 11:56:26-27.4273-59.019281438601Clb=5.8m/s t=-22.4C h=64.5% p=-1.0hPa 402.000 MHz Type=RS41-SG ser=T4711066 Radiosonde
LU3GHFT47110662022-12-07 11:55:26-27.4275-59.023103578410Clb=5.0m/s t=-21.2C h=69.4% p=-1.0hPa 402.000 MHz Type=RS41-SG ser=T4711066 Radiosonde
LU3GHFT47110662022-12-07 11:54:30-27.4275-59.026876338195Clb=6.0m/s t=-19.4C h=35.2% p=-1.0hPa 402.000 MHz Type=RS41-SG ser=T4711066 Radiosonde
LU3GHFT47110662022-12-07 11:53:27-27.4277-59.030487467987Clb=5.7m/s t=-18.1C h=29.3% p=-1.0hPa 402.000 MHz Type=RS41-SG ser=T4711066 Radiosonde
LU3GHFT47110662022-12-07 11:52:25-27.4281-59.034665317753Clb=7.8m/s t=-16.1C h=25.4% p=-1.0hPa 402.000 MHz Type=RS41-SG ser=T4711066 Radiosonde
LU3GHFT47110662022-12-07 11:51:42-27.4286-59.037884487558Clb=3.7m/s t=-14.3C h=22.8% p=-1.0hPa 402.000 MHz Type=RS41-SG ser=T4711066 Radiosonde
LU3GHFT47110662022-12-07 11:51:17-27.4411-59.052993265853Clb=6.2m/s t=-5.1C h=25.2% p=-1.0hPa 402.000 MHz Type=RS41-SG ser=T4711066 Radiosonde
LU3GHFT47110662022-12-07 11:51:15-27.4414-59.0538351135661Clb=6.5m/s t=-4.1C h=25.0% p=-1.0hPa 402.000 MHz Type=RS41-SG ser=T4711066 Radiosonde
LU3GHFT47110662022-12-07 11:51:13-27.442-59.05437495451Clb=4.4m/s t=-2.3C h=16.6% p=-1.0hPa 402.000 MHz Type=RS41-SG ser=T4711066 Radiosonde
LU3GHFT47110662022-12-07 11:51:05-27.4424-59.05454115263Clb=5.6m/s t=-0.5C h=10.3% p=-1.0hPa 402.000 MHz Type=RS41-SG ser=T4711066 Radiosonde
LU3GHFT47110662022-12-07 11:50:14-27.4426-59.054128145044Clb=8.8m/s t=1.2C h=9.4% p=-1.0hPa 402.000 MHz Type=RS41-SG ser=T4711066 Radiosonde
LU3GHFT47110662022-12-07 11:49:18-27.4425-59.0543283154836Clb=6.0m/s t=3.1C h=9.2% p=-1.0hPa 402.000 MHz Type=RS41-SG ser=T4711066 Radiosonde
LU3GHFT47110662022-12-07 11:48:21-27.4423-59.0537355154641Clb=4.8m/s t=4.8C h=4.2% p=-1.0hPa 402.000 MHz Type=RS41-SG ser=T4711066 Radiosonde
LU3GHFT47110662022-12-07 11:47:22-27.4425-59.053229244437Clb=7.1m/s t=4.4C h=8.2% p=-1.0hPa 402.000 MHz Type=RS41-SG ser=T4711066 Radiosonde
LU3GHFT47110662022-12-07 11:46:22-27.4427-59.05339924231Clb=5.1m/s t=5.1C h=4.1% p=-1.0hPa 402.000 MHz Type=RS41-SG ser=T4711066 Radiosonde
LU3GHFT47110662022-12-07 11:45:25-27.4432-59.0535324174023Clb=7.6m/s t=6.2C h=15.7% p=-1.0hPa 402.000 MHz Type=RS41-SG ser=T4711066 Radiosonde
LU3GHFT47110662022-12-07 11:44:26-27.4445-59.053435043830Clb=4.1m/s t=7.6C h=12.9% p=-1.0hPa 402.000 MHz Type=RS41-SG ser=T4711066 Radiosonde
LU3GHFT47110662022-12-07 11:43:59-27.4461-59.05375313639Clb=8.1m/s t=9.3C h=5.1% p=-1.0hPa 402.000 MHz Type=RS41-SG ser=T4711066 Radiosonde
LU3GHFT47110662022-12-07 11:43:50-27.4472-59.05442223447Clb=6.4m/s t=10.5C h=5.6% p=-1.0hPa 402.000 MHz Type=RS41-SG ser=T4711066 Radiosonde
LU3GHFT47110662022-12-07 11:43:36-27.4487-59.0539336193250Clb=9.3m/s t=11.7C h=6.5% p=-1.0hPa 402.000 MHz Type=RS41-SG ser=T4711066 Radiosonde
LU3GHFT47110662022-12-07 11:43:06-27.4498-59.05373343044Clb=7.2m/s t=12.4C h=7.6% p=-1.0hPa 402.000 MHz Type=RS41-SG ser=T4711066 Radiosonde
LU3GHFT47110662022-12-07 11:42:40-27.4503-59.0531299332843Clb=5.5m/s t=13.6C h=10.6% p=-1.0hPa 402.000 MHz Type=RS41-SG ser=T4711066 Radiosonde
LU3GHFT47110662022-12-07 11:41:48-27.4513-59.05221222641Clb=4.0m/s t=12.2C h=70.5% p=-1.0hPa 402.000 MHz Type=RS41-SG ser=T4711066 Radiosonde
LU3GHFT47110662022-12-07 11:40:55-27.4524-59.0519349222454Clb=7.2m/s t=14.0C h=65.2% p=-1.0hPa 402.000 MHz Type=RS41-SG ser=T4711066 Radiosonde
LU3GHFT47110662022-12-07 11:40:01-27.4534-59.051223202271Clb=6.0m/s t=15.7C h=59.3% p=-1.0hPa 402.000 MHz Type=RS41-SG ser=T4711066 Radiosonde
LU3GHFT47110662022-12-07 11:39:20-27.4539-59.0504305392076Clb=8.5m/s t=17.3C h=54.5% p=-1.0hPa 402.000 MHz Type=RS41-SG ser=T4711066 Radiosonde
LU3GHFT47110662022-12-07 11:38:22-27.4537-59.0499187311858Clb=8.1m/s t=18.9C h=56.5% p=-1.0hPa 402.000 MHz Type=RS41-SG ser=T4711066 Radiosonde
LU3GHFT47110662022-12-07 11:37:18-27.4529-59.0498142131663Clb=11.3m/s t=20.2C h=61.8% p=-1.0hPa 402.000 MHz Type=RS41-SG ser=T4711066 Radiosonde
LU3GHFT47110662022-12-07 11:36:20-27.4517-59.049522971434Clb=4.9m/s t=22.2C h=56.9% p=-1.0hPa 402.000 MHz Type=RS41-SG ser=T4711066 Radiosonde
LU3GHFT47110662022-12-07 11:34:43-27.4465-59.048123020816Clb=6.8m/s t=-273.0C h=-1.0% p=-1.0hPa 402.000 MHz Type=RS41-SG ser=T4711066 Radiosonde
LU3GHFT47110662022-12-07 11:34:41-27.4441-59.047521811613Clb=8.9m/s t=-273.0C h=-1.0% p=-1.0hPa 402.000 MHz Type=RS41-SG ser=T4711066 Radiosonde